Time;durP1;ratioP1;P1;durP2;ratioP2;P2;SDS_P1;SDS_P2;PMS_P1;PMS_P2;Temp;Humidity;BMP_temperature;BMP_pressure;BME280_temperature;BME280_humidity;BME280_pressure;Samples;Min_cycle;Max_cycle;Signal;HPM_P1;HPM_P2
2023/03/30 00:01:27;;;;;;;22.97;21.57;;;;;;;;;;5101481;28;20484;-80
2023/03/30 00:03:54;;;;;;;22.80;21.27;;;;;;;;;;5102836;28;20506;-79
2023/03/30 00:06:23;;;;;;;22.67;21.27;;;;;;;;;;5100691;28;20514;-80
2023/03/30 00:08:52;;;;;;;24.00;21.60;;;;;;;;;;5101604;28;20595;-79
2023/03/30 00:11:21;;;;;;;22.63;20.87;;;;;;;;;;5102214;28;20444;-80
2023/03/30 00:13:49;;;;;;;22.50;21.20;;;;;;;;;;5101470;28;20522;-79
2023/03/30 00:16:16;;;;;;;22.40;20.53;;;;;;;;;;5100190;28;20530;-79
2023/03/30 00:18:44;;;;;;;22.40;21.20;;;;;;;;;;5101708;28;20494;-79
2023/03/30 00:21:11;;;;;;;23.37;21.80;;;;;;;;;;5101134;28;20472;-79
2023/03/30 00:23:40;;;;;;;22.33;20.93;;;;;;;;;;5101578;28;20433;-79
2023/03/30 00:26:07;;;;;;;23.33;21.73;;;;;;;;;;5100031;28;20478;-80
2023/03/30 00:28:35;;;;;;;23.73;22.00;;;;;;;;;;5100925;28;20530;-79
2023/03/30 00:31:02;;;;;;;21.70;20.50;;;;;;;;;;5100601;28;20411;-80
2023/03/30 00:33:29;;;;;;;21.67;20.37;;;;;;;;;;5100676;28;20452;-79
2023/03/30 00:35:57;;;;;;;22.37;21.07;;;;;;;;;;5100376;28;20875;-80
2023/03/30 00:38:24;;;;;;;22.63;21.33;;;;;;;;;;5100846;28;20516;-80
2023/03/30 00:40:53;;;;;;;23.37;21.87;;;;;;;;;;5100776;28;20996;-80
2023/03/30 00:43:21;;;;;;;24.07;22.67;;;;;;;;;;5100735;28;20448;-80
2023/03/30 00:45:48;;;;;;;23.03;21.63;;;;;;;;;;5100139;28;20456;-80
2023/03/30 00:48:17;;;;;;;23.70;22.30;;;;;;;;;;5100416;28;20475;-79
2023/03/30 00:50:46;;;;;;;23.37;21.57;;;;;;;;;;5100023;28;20443;-80
2023/03/30 00:53:16;;;;;;;22.90;21.60;;;;;;;;;;5100326;28;20481;-79
2023/03/30 00:55:44;;;;;;;23.03;21.60;;;;;;;;;;5099536;28;20586;-80
2023/03/30 00:58:14;;;;;;;22.87;21.33;;;;;;;;;;5100651;28;20439;-79
2023/03/30 01:00:42;;;;;;;22.60;21.13;;;;;;;;;;5100411;28;20920;-80
2023/03/30 01:03:13;;;;;;;21.53;20.43;;;;;;;;;;5099850;28;20449;-80
2023/03/30 01:05:41;;;;;;;22.70;21.50;;;;;;;;;;5100632;28;20428;-80
2023/03/30 01:08:08;;;;;;;21.27;20.17;;;;;;;;;;5100445;28;20488;-80
2023/03/30 01:10:36;;;;;;;21.90;20.60;;;;;;;;;;5100732;28;20444;-79
2023/03/30 01:13:03;;;;;;;22.80;21.03;;;;;;;;;;5101084;28;20486;-79
2023/03/30 01:15:33;;;;;;;21.97;20.57;;;;;;;;;;5100924;28;20453;-79
2023/03/30 01:18:08;;;;;;;21.63;20.27;;;;;;;;;;5101149;28;20457;-80
2023/03/30 01:21:02;;;;;;;21.93;20.73;;;;;;;;;;5100477;28;20886;-79
2023/03/30 01:23:56;;;;;;;21.43;20.10;;;;;;;;;;5100637;28;20951;-79
2023/03/30 01:26:34;;;;;;;21.93;20.70;;;;;;;;;;5100275;28;20529;-79
2023/03/30 01:29:04;;;;;;;21.93;20.70;;;;;;;;;;5099258;28;20989;-80
2023/03/30 01:31:48;;;;;;;21.60;20.40;;;;;;;;;;5100460;28;20440;-80
2023/03/30 01:34:30;;;;;;;20.90;19.80;;;;;;;;;;5099547;28;20907;-79
2023/03/30 01:37:07;;;;;;;22.73;21.33;;;;;;;;;;5103554;28;20454;-80
2023/03/30 01:39:40;;;;;;;23.07;21.77;;;;;;;;;;5100407;28;20484;-80
2023/03/30 01:42:12;;;;;;;21.63;20.30;;;;;;;;;;5100161;28;20504;-80
2023/03/30 01:44:43;;;;;;;20.93;19.83;;;;;;;;;;5102060;28;20471;-81
2023/03/30 01:47:15;;;;;;;22.50;20.90;;;;;;;;;;5100735;28;20487;-80
2023/03/30 01:49:44;;;;;;;22.63;21.33;;;;;;;;;;5100592;28;21004;-80
2023/03/30 01:52:14;;;;;;;21.27;19.90;;;;;;;;;;5101622;28;20444;-79
2023/03/30 01:54:44;;;;;;;21.47;20.27;;;;;;;;;;5101027;28;20461;-79
2023/03/30 01:57:15;;;;;;;22.00;20.70;;;;;;;;;;5099162;28;20534;-79
2023/03/30 01:59:45;;;;;;;21.33;20.23;;;;;;;;;;5099670;28;20474;-79
2023/03/30 02:02:14;;;;;;;21.23;19.93;;;;;;;;;;5097499;28;20469;-79
2023/03/30 02:04:44;;;;;;;21.73;20.63;;;;;;;;;;5097479;28;20452;-78
2023/03/30 02:07:13;;;;;;;21.10;20.00;;;;;;;;;;5096788;28;20456;-80
2023/03/30 02:09:41;;;;;;;23.63;22.30;;;;;;;;;;5096528;28;20513;-79
2023/03/30 02:12:10;;;;;;;22.77;21.37;;;;;;;;;;5097289;28;20426;-79
2023/03/30 02:14:39;;;;;;;21.43;20.20;;;;;;;;;;5096933;28;20479;-79
2023/03/30 02:17:10;;;;;;;22.07;20.60;;;;;;;;;;5098530;28;20476;-79
2023/03/30 02:19:37;;;;;;;22.17;20.50;;;;;;;;;;5097734;28;20455;-79
2023/03/30 02:22:05;;;;;;;22.70;21.40;;;;;;;;;;5096576;28;21221;-79
2023/03/30 02:24:34;;;;;;;22.63;21.13;;;;;;;;;;5095822;28;20441;-79
2023/03/30 02:27:01;;;;;;;22.00;20.63;;;;;;;;;;5096110;28;20449;-79
2023/03/30 02:29:31;;;;;;;22.27;20.97;;;;;;;;;;5100921;28;20469;-79
2023/03/30 02:31:59;;;;;;;22.10;20.80;;;;;;;;;;5101360;28;20469;-79
2023/03/30 02:34:36;;;;;;;22.17;20.70;;;;;;;;;;5095549;28;20449;-79
2023/03/30 02:37:11;;;;;;;21.93;20.73;;;;;;;;;;5096582;28;20478;-79
2023/03/30 02:39:42;;;;;;;21.37;20.27;;;;;;;;;;5098135;28;20535;-79
2023/03/30 02:42:20;;;;;;;21.93;20.53;;;;;;;;;;5099248;28;20485;-80
2023/03/30 02:44:52;;;;;;;21.23;20.13;;;;;;;;;;5099307;28;20425;-79
2023/03/30 02:47:23;;;;;;;21.20;20.10;;;;;;;;;;5097346;28;20396;-79
2023/03/30 02:49:53;;;;;;;22.37;21.23;;;;;;;;;;5097347;28;20496;-80
2023/03/30 02:52:32;;;;;;;22.17;21.07;;;;;;;;;;5098510;28;20467;-79
2023/03/30 02:55:03;;;;;;;21.97;20.57;;;;;;;;;;5099620;28;20433;-79
2023/03/30 02:57:34;;;;;;;21.77;20.30;;;;;;;;;;5104791;28;20533;-79
2023/03/30 03:00:07;;;;;;;21.03;19.83;;;;;;;;;;5099038;28;20433;-80
2023/03/30 03:02:36;;;;;;;20.47;19.27;;;;;;;;;;5097992;28;20491;-79
2023/03/30 03:05:03;;;;;;;20.50;19.30;;;;;;;;;;5097821;28;20449;-79
2023/03/30 03:07:32;;;;;;;20.50;19.30;;;;;;;;;;5098100;28;20866;-79
2023/03/30 03:09:59;;;;;;;20.63;19.23;;;;;;;;;;5099371;28;20480;-80
2023/03/30 03:12:27;;;;;;;19.20;18.03;;;;;;;;;;5099746;28;20433;-79
2023/03/30 03:14:54;;;;;;;20.27;19.00;;;;;;;;;;5098402;28;20890;-78
2023/03/30 03:17:23;;;;;;;19.87;18.77;;;;;;;;;;5097677;28;20498;-79
2023/03/30 03:19:50;;;;;;;18.80;17.80;;;;;;;;;;5096917;28;20485;-81
2023/03/30 03:22:17;;;;;;;19.03;17.90;;;;;;;;;;5097401;28;20473;-80
2023/03/30 03:24:44;;;;;;;19.83;18.73;;;;;;;;;;5097564;28;20456;-79
2023/03/30 03:27:11;;;;;;;21.20;19.83;;;;;;;;;;5098418;28;21002;-80
2023/03/30 03:29:38;;;;;;;21.13;19.93;;;;;;;;;;5097547;28;20530;-79
2023/03/30 03:32:05;;;;;;;19.90;18.70;;;;;;;;;;5099441;28;20425;-81
2023/03/30 03:34:34;;;;;;;20.10;18.97;;;;;;;;;;5098623;28;20486;-81
2023/03/30 03:37:02;;;;;;;20.30;19.30;;;;;;;;;;5097643;28;20939;-80
2023/03/30 03:39:30;;;;;;;20.30;19.30;;;;;;;;;;5104400;28;20472;-78
2023/03/30 03:41:57;;;;;;;20.30;18.77;;;;;;;;;;5118119;28;20457;-79
2023/03/30 03:44:24;;;;;;;20.37;18.90;;;;;;;;;;5118253;28;20452;-79
2023/03/30 03:46:51;;;;;;;19.80;18.80;;;;;;;;;;5103085;28;20441;-80
2023/03/30 03:49:18;;;;;;;20.30;19.10;;;;;;;;;;5098363;28;20465;-80
2023/03/30 03:51:46;;;;;;;19.77;18.60;;;;;;;;;;5099299;28;20766;-79
2023/03/30 03:54:13;;;;;;;19.23;18.03;;;;;;;;;;5099448;28;20445;-80
2023/03/30 03:56:40;;;;;;;19.90;18.80;;;;;;;;;;5098962;28;20948;-80
2023/03/30 03:59:07;;;;;;;19.63;18.57;;;;;;;;;;5100283;28;20459;-79
2023/03/30 04:01:35;;;;;;;19.80;18.70;;;;;;;;;;5100720;28;20476;-80
2023/03/30 04:04:02;;;;;;;20.90;19.40;;;;;;;;;;5101437;28;20520;-80
2023/03/30 04:06:29;;;;;;;20.07;18.67;;;;;;;;;;5101380;28;20982;-79
2023/03/30 04:08:57;;;;;;;19.60;18.50;;;;;;;;;;5100837;28;20984;-80
2023/03/30 04:11:25;;;;;;;20.37;19.17;;;;;;;;;;5100728;28;20461;-78
2023/03/30 04:13:52;;;;;;;21.27;19.37;;;;;;;;;;5101410;28;20466;-79
2023/03/30 04:16:19;;;;;;;19.97;18.83;;;;;;;;;;5100114;28;20498;-79
2023/03/30 04:18:46;;;;;;;20.60;19.30;;;;;;;;;;5100976;28;20503;-79
2023/03/30 04:21:16;;;;;;;22.03;20.53;;;;;;;;;;5100278;28;20437;-79
2023/03/30 04:23:47;;;;;;;21.57;19.87;;;;;;;;;;5097955;28;20444;-80
2023/03/30 04:26:16;;;;;;;20.33;19.13;;;;;;;;;;5096764;28;20423;-79
2023/03/30 04:28:45;;;;;;;19.57;18.37;;;;;;;;;;5101399;28;20443;-79
2023/03/30 04:31:12;;;;;;;19.60;18.20;;;;;;;;;;5100570;28;20501;-79
2023/03/30 04:33:44;;;;;;;19.40;18.30;;;;;;;;;;5097413;28;20802;-79
2023/03/30 04:36:16;;;;;;;19.50;18.43;;;;;;;;;;5098895;28;20435;-79
2023/03/30 04:38:44;;;;;;;20.07;18.87;;;;;;;;;;5100459;28;20477;-80
2023/03/30 04:41:12;;;;;;;20.87;19.43;;;;;;;;;;5115304;28;20427;-78
2023/03/30 04:43:41;;;;;;;20.60;19.37;;;;;;;;;;5109371;28;20917;-79
2023/03/30 04:46:08;;;;;;;19.53;18.20;;;;;;;;;;5101938;28;20474;-79
2023/03/30 04:48:35;;;;;;;18.50;17.50;;;;;;;;;;5101115;28;20476;-79
2023/03/30 04:51:02;;;;;;;18.93;17.87;;;;;;;;;;5103736;28;20451;-79
2023/03/30 04:53:29;;;;;;;19.23;17.90;;;;;;;;;;5102649;28;20998;-79
2023/03/30 04:55:56;;;;;;;19.97;18.87;;;;;;;;;;5101385;28;20411;-78
2023/03/30 04:58:23;;;;;;;19.90;18.27;;;;;;;;;;5100789;28;20468;-79
2023/03/30 05:00:52;;;;;;;19.60;18.30;;;;;;;;;;5100341;28;20486;-78
2023/03/30 05:03:19;;;;;;;19.67;18.37;;;;;;;;;;5100152;28;20862;-78
2023/03/30 05:05:46;;;;;;;18.83;17.83;;;;;;;;;;5099014;28;20804;-78
2023/03/30 05:08:14;;;;;;;20.10;18.40;;;;;;;;;;5099556;28;20469;-78
2023/03/30 05:10:40;;;;;;;20.00;19.00;;;;;;;;;;5100112;28;20446;-79
2023/03/30 05:13:07;;;;;;;19.57;18.37;;;;;;;;;;5102132;28;20423;-77
2023/03/30 05:15:35;;;;;;;19.50;18.50;;;;;;;;;;5098657;28;20448;-77
2023/03/30 05:18:03;;;;;;;20.00;18.67;;;;;;;;;;5101118;28;20480;-77
2023/03/30 05:20:30;;;;;;;19.73;18.63;;;;;;;;;;5099066;28;20416;-77
2023/03/30 05:22:57;;;;;;;20.83;19.53;;;;;;;;;;5098893;28;20996;-77
2023/03/30 05:25:24;;;;;;;19.63;18.53;;;;;;;;;;5099555;28;20447;-77
2023/03/30 05:27:51;;;;;;;21.83;20.10;;;;;;;;;;5097864;28;20474;-77
2023/03/30 05:30:18;;;;;;;20.07;19.07;;;;;;;;;;5100767;28;20423;-78
2023/03/30 05:32:45;;;;;;;19.93;18.83;;;;;;;;;;5099873;28;20423;-77
2023/03/30 05:35:13;;;;;;;19.60;18.50;;;;;;;;;;5099130;28;20457;-77
2023/03/30 05:37:40;;;;;;;21.00;19.50;;;;;;;;;;5098605;28;20518;-77
2023/03/30 05:40:09;;;;;;;20.13;18.80;;;;;;;;;;5104356;28;20423;-78
2023/03/30 05:42:36;;;;;;;20.87;19.67;;;;;;;;;;5106492;28;20516;-77
2023/03/30 05:45:04;;;;;;;20.00;18.70;;;;;;;;;;5107845;28;20468;-79
2023/03/30 05:47:31;;;;;;;20.13;18.60;;;;;;;;;;5106418;28;20883;-78
2023/03/30 05:49:58;;;;;;;19.70;18.40;;;;;;;;;;5105658;28;20447;-78
2023/03/30 05:52:26;;;;;;;19.70;18.53;;;;;;;;;;5106827;28;20839;-78
2023/03/30 05:54:53;;;;;;;19.93;18.83;;;;;;;;;;5104965;28;20437;-78
2023/03/30 05:57:20;;;;;;;20.00;18.83;;;;;;;;;;5104903;28;20437;-78
2023/03/30 05:59:48;;;;;;;19.43;18.23;;;;;;;;;;5105406;28;20579;-78
2023/03/30 06:02:16;;;;;;;19.93;18.63;;;;;;;;;;5109292;28;20455;-78
2023/03/30 06:04:43;;;;;;;19.70;18.20;;;;;;;;;;5110681;28;20444;-78
2023/03/30 06:07:10;;;;;;;19.57;18.47;;;;;;;;;;5109715;28;20475;-78
2023/03/30 06:09:39;;;;;;;19.60;18.57;;;;;;;;;;5109152;28;20962;-77
2023/03/30 06:12:06;;;;;;;20.87;19.37;;;;;;;;;;5110039;28;20440;-77
2023/03/30 06:14:33;;;;;;;20.43;19.27;;;;;;;;;;5109181;28;20444;-77
2023/03/30 06:17:00;;;;;;;20.60;19.30;;;;;;;;;;5108124;28;20427;-77
2023/03/30 06:19:27;;;;;;;20.63;19.20;;;;;;;;;;5109135;28;20473;-78
2023/03/30 06:21:54;;;;;;;20.40;19.10;;;;;;;;;;5110800;28;20470;-79
2023/03/30 06:24:21;;;;;;;20.23;18.87;;;;;;;;;;5109196;28;20452;-77
2023/03/30 06:26:50;;;;;;;21.23;19.73;;;;;;;;;;5105558;28;20456;-79
2023/03/30 06:29:17;;;;;;;20.73;19.33;;;;;;;;;;5105219;28;20515;-78
2023/03/30 06:31:45;;;;;;;21.63;20.13;;;;;;;;;;5104911;28;20424;-78
2023/03/30 06:34:11;;;;;;;21.03;19.47;;;;;;;;;;5104426;28;20453;-77
2023/03/30 06:36:38;;;;;;;20.63;19.43;;;;;;;;;;5107280;28;20502;-79
2023/03/30 06:39:06;;;;;;;21.63;19.93;;;;;;;;;;5104443;28;20988;-79
2023/03/30 06:41:33;;;;;;;20.63;19.13;;;;;;;;;;5106103;28;20492;-77
2023/03/30 06:44:01;;;;;;;19.47;18.37;;;;;;;;;;5106019;28;20503;-77
2023/03/30 06:46:28;;;;;;;19.70;18.43;;;;;;;;;;5105135;28;20420;-78
2023/03/30 06:48:55;;;;;;;19.90;18.70;;;;;;;;;;5106119;28;20469;-79
2023/03/30 06:51:22;;;;;;;20.47;19.07;;;;;;;;;;5106087;28;20444;-77
2023/03/30 06:53:49;;;;;;;20.43;19.03;;;;;;;;;;5104858;28;20468;-77
2023/03/30 06:56:16;;;;;;;19.93;18.73;;;;;;;;;;5103872;28;20479;-78
2023/03/30 06:58:44;;;;;;;20.03;18.93;;;;;;;;;;5103263;28;20465;-78
2023/03/30 07:01:14;;;;;;;20.17;18.73;;;;;;;;;;5102139;28;20419;-78
2023/03/30 07:03:41;;;;;;;19.83;18.63;;;;;;;;;;5103162;28;20480;-77
2023/03/30 07:06:09;;;;;;;21.07;19.70;;;;;;;;;;5104721;28;20445;-76
2023/03/30 07:08:36;;;;;;;20.43;19.03;;;;;;;;;;5104447;28;20483;-76
2023/03/30 07:11:04;;;;;;;21.27;19.97;;;;;;;;;;5105607;28;20445;-78
2023/03/30 07:13:31;;;;;;;21.37;19.90;;;;;;;;;;5098961;28;20440;-78
2023/03/30 07:15:58;;;;;;;20.13;18.67;;;;;;;;;;5097329;28;20502;-78
2023/03/30 07:18:27;;;;;;;20.97;19.47;;;;;;;;;;5098971;28;20524;-78
2023/03/30 07:20:54;;;;;;;21.33;19.60;;;;;;;;;;5095847;28;20453;-79
2023/03/30 07:23:21;;;;;;;20.70;19.30;;;;;;;;;;5095810;28;20484;-79
2023/03/30 07:25:48;;;;;;;21.27;19.70;;;;;;;;;;5095734;28;20459;-80
2023/03/30 07:28:15;;;;;;;20.97;19.67;;;;;;;;;;5097911;28;20436;-78
2023/03/30 07:30:42;;;;;;;20.63;19.37;;;;;;;;;;5098506;28;20448;-79
2023/03/30 07:33:10;;;;;;;21.10;19.80;;;;;;;;;;5098304;28;20425;-80
2023/03/30 07:35:43;;;;;;;20.17;19.07;;;;;;;;;;5096211;28;20461;-80
2023/03/30 07:38:10;;;;;;;20.40;18.70;;;;;;;;;;5092038;28;20526;-78
2023/03/30 07:40:38;;;;;;;22.67;19.90;;;;;;;;;;5092109;28;20564;-79
2023/03/30 07:43:05;;;;;;;20.63;19.33;;;;;;;;;;5092829;28;20481;-77
2023/03/30 07:45:32;;;;;;;19.10;18.07;;;;;;;;;;5092625;28;20463;-77
2023/03/30 07:47:59;;;;;;;20.30;19.00;;;;;;;;;;5093597;28;20427;-78
2023/03/30 07:50:26;;;;;;;21.43;19.83;;;;;;;;;;5094988;28;20445;-79
2023/03/30 07:52:55;;;;;;;19.30;18.10;;;;;;;;;;5093750;28;20448;-79
2023/03/30 07:55:22;;;;;;;20.70;19.30;;;;;;;;;;5093263;28;20420;-80
2023/03/30 07:57:49;;;;;;;20.97;19.53;;;;;;;;;;5094511;28;20781;-79
2023/03/30 08:00:17;;;;;;;21.00;19.60;;;;;;;;;;5094544;28;20790;-79
2023/03/30 08:02:44;;;;;;;20.67;19.40;;;;;;;;;;5112412;28;20459;-78
2023/03/30 08:05:11;;;;;;;21.87;20.20;;;;;;;;;;5112955;28;20458;-78
2023/03/30 08:07:38;;;;;;;20.57;19.03;;;;;;;;;;5112551;28;20423;-81
2023/03/30 08:10:08;;;;;;;19.30;18.30;;;;;;;;;;5112174;28;20429;-81
2023/03/30 08:12:35;;;;;;;21.47;20.10;;;;;;;;;;5114955;28;20443;-82
2023/03/30 08:15:02;;;;;;;20.97;19.53;;;;;;;;;;5106326;28;20463;-80
2023/03/30 08:17:29;;;;;;;20.90;19.30;;;;;;;;;;5099031;28;20558;-80
2023/03/30 08:19:56;;;;;;;20.00;18.70;;;;;;;;;;5098337;28;20451;-81
2023/03/30 08:22:23;;;;;;;20.80;19.60;;;;;;;;;;5097277;28;20522;-80
2023/03/30 08:24:50;;;;;;;20.20;19.17;;;;;;;;;;5097176;28;20427;-88
2023/03/30 08:27:19;;;;;;;21.40;19.90;;;;;;;;;;5095336;28;20491;-80
2023/03/30 08:29:47;;;;;;;20.27;19.07;;;;;;;;;;5098142;28;20468;-78
2023/03/30 08:32:21;;;;;;;21.63;20.00;;;;;;;;;;5083623;28;20460;-80
2023/03/30 08:34:48;;;;;;;20.77;19.40;;;;;;;;;;5074734;28;20526;-79
2023/03/30 08:37:15;;;;;;;20.07;18.87;;;;;;;;;;5074922;28;20511;-79
2023/03/30 08:39:42;;;;;;;20.93;19.73;;;;;;;;;;5074062;28;20474;-80
2023/03/30 08:42:17;;;;;;;20.60;19.30;;;;;;;;;;5075008;28;20441;-80
2023/03/30 08:44:46;;;;;;;19.90;18.80;;;;;;;;;;5074659;28;20552;-78
2023/03/30 08:47:15;;;;;;;21.33;20.03;;;;;;;;;;5074835;28;20960;-79
2023/03/30 08:49:43;;;;;;;21.47;19.90;;;;;;;;;;5074198;28;20489;-79
2023/03/30 08:52:14;;;;;;;22.60;21.20;;;;;;;;;;5074945;28;20483;-78
2023/03/30 08:54:41;;;;;;;21.57;20.07;;;;;;;;;;5075245;28;20776;-79
2023/03/30 08:57:11;;;;;;;20.30;19.10;;;;;;;;;;5074773;28;20457;-79
2023/03/30 08:59:43;;;;;;;23.60;21.70;;;;;;;;;;5074804;28;20467;-79
2023/03/30 09:02:16;;;;;;;22.00;20.50;;;;;;;;;;5074999;28;20441;-78
2023/03/30 09:04:55;;;;;;;20.80;19.33;;;;;;;;;;5075311;28;20554;-78
2023/03/30 09:07:23;;;;;;;21.30;19.90;;;;;;;;;;5074414;28;20539;-79
2023/03/30 09:09:51;;;;;;;20.93;19.50;;;;;;;;;;5074655;28;20871;-78
2023/03/30 09:12:22;;;;;;;19.30;18.20;;;;;;;;;;5076645;28;20438;-79
2023/03/30 09:14:50;;;;;;;21.63;20.17;;;;;;;;;;5076959;28;20910;-85
2023/03/30 09:17:20;;;;;;;20.90;19.50;;;;;;;;;;5080678;28;20597;-79
2023/03/30 09:19:51;;;;;;;21.23;20.00;;;;;;;;;;5075707;28;20491;-78
2023/03/30 09:22:18;;;;;;;20.67;19.40;;;;;;;;;;5077139;28;20451;-78
2023/03/30 09:24:46;;;;;;;23.17;21.50;;;;;;;;;;5074473;28;20527;-79
2023/03/30 09:27:17;;;;;;;21.47;20.00;;;;;;;;;;5074468;28;20479;-79
2023/03/30 09:29:47;;;;;;;20.47;18.77;;;;;;;;;;5074641;28;20477;-78
2023/03/30 09:32:18;;;;;;;19.03;17.87;;;;;;;;;;5074856;28;20453;-80
2023/03/30 09:34:48;;;;;;;19.90;18.90;;;;;;;;;;5079744;28;20478;-80
2023/03/30 09:37:17;;;;;;;19.93;18.93;;;;;;;;;;5077218;28;20450;-80
2023/03/30 09:39:44;;;;;;;23.77;22.13;;;;;;;;;;5074970;28;20508;-80
2023/03/30 09:42:15;;;;;;;32.03;29.63;;;;;;;;;;5094477;28;20463;-81
2023/03/30 09:44:45;;;;;;;26.77;25.47;;;;;;;;;;5096548;28;20488;-80
2023/03/30 09:47:20;;;;;;;24.90;23.50;;;;;;;;;;5096996;28;20452;-77
2023/03/30 09:49:48;;;;;;;27.30;25.73;;;;;;;;;;5096358;28;20464;-78
2023/03/30 09:52:21;;;;;;;24.57;23.13;;;;;;;;;;5100620;28;20813;-80
2023/03/30 09:54:48;;;;;;;22.47;21.07;;;;;;;;;;5099045;28;20468;-78
2023/03/30 09:57:24;;;;;;;26.57;25.07;;;;;;;;;;5094963;28;20453;-79
2023/03/30 09:59:54;;;;;;;22.20;20.90;;;;;;;;;;5099851;28;20464;-79
2023/03/30 10:02:22;;;;;;;20.73;19.57;;;;;;;;;;5095153;28;20430;-78
2023/03/30 10:05:01;;;;;;;19.83;18.83;;;;;;;;;;5095012;28;20499;-76
2023/03/30 10:07:29;;;;;;;21.17;19.37;;;;;;;;;;5095192;28;20476;-78
2023/03/30 10:09:56;;;;;;;20.17;18.73;;;;;;;;;;5095374;28;20527;-77
2023/03/30 10:12:24;;;;;;;19.53;18.40;;;;;;;;;;5095616;28;20925;-76
2023/03/30 10:14:55;;;;;;;20.57;19.13;;;;;;;;;;5096282;28;20445;-77
2023/03/30 10:17:25;;;;;;;21.50;19.90;;;;;;;;;;5098558;28;20469;-77
2023/03/30 10:19:53;;;;;;;20.63;19.07;;;;;;;;;;5096661;28;20472;-76
2023/03/30 10:22:22;;;;;;;20.57;19.30;;;;;;;;;;5094792;28;20455;-77
2023/03/30 10:24:50;;;;;;;19.50;18.20;;;;;;;;;;5093104;28;20538;-75
2023/03/30 10:27:17;;;;;;;20.23;19.03;;;;;;;;;;5092833;28;20530;-76
2023/03/30 10:29:47;;;;;;;20.10;18.80;;;;;;;;;;5095167;28;20486;-76
2023/03/30 10:32:16;;;;;;;20.97;19.37;;;;;;;;;;5093786;28;20983;-76
2023/03/30 10:34:44;;;;;;;19.60;18.50;;;;;;;;;;5096837;28;20457;-76
2023/03/30 10:37:12;;;;;;;19.07;17.70;;;;;;;;;;5094390;28;20445;-77
2023/03/30 10:39:42;;;;;;;20.30;18.77;;;;;;;;;;5094429;28;20996;-76
2023/03/30 10:42:14;;;;;;;19.97;18.70;;;;;;;;;;5093690;28;20465;-80
2023/03/30 10:44:44;;;;;;;20.90;19.53;;;;;;;;;;5099319;28;20469;-77
2023/03/30 10:47:18;;;;;;;20.47;19.13;;;;;;;;;;5096735;28;20474;-76
2023/03/30 10:49:50;;;;;;;20.50;19.20;;;;;;;;;;5094927;28;20468;-75
2023/03/30 10:52:25;;;;;;;19.80;18.80;;;;;;;;;;5097237;28;20431;-78
2023/03/30 10:54:55;;;;;;;20.17;18.70;;;;;;;;;;5097400;28;20416;-76
2023/03/30 10:57:26;;;;;;;20.10;18.90;;;;;;;;;;5100189;28;20470;-81
2023/03/30 11:00:14;;;;;;;20.00;18.80;;;;;;;;;;5097274;28;20496;-79
2023/03/30 11:02:47;;;;;;;19.10;18.10;;;;;;;;;;5096409;28;20452;-83
2023/03/30 11:05:16;;;;;;;19.57;18.50;;;;;;;;;;5100294;28;20532;-78
2023/03/30 11:07:45;;;;;;;23.40;21.90;;;;;;;;;;5095007;28;21300;-78
2023/03/30 11:10:16;;;;;;;21.00;19.50;;;;;;;;;;5095346;28;20476;-77
2023/03/30 11:12:45;;;;;;;21.13;19.73;;;;;;;;;;5099609;28;20433;-80
2023/03/30 11:15:15;;;;;;;21.33;20.00;;;;;;;;;;5095131;28;20445;-79
2023/03/30 11:17:48;;;;;;;21.30;19.90;;;;;;;;;;5093773;28;20452;-81
2023/03/30 11:20:22;;;;;;;20.83;19.60;;;;;;;;;;5093381;28;20573;-82
2023/03/30 11:22:52;;;;;;;21.37;20.17;;;;;;;;;;5093602;28;20480;-76
2023/03/30 11:25:21;;;;;;;21.20;19.70;;;;;;;;;;5091935;28;20469;-76
2023/03/30 11:27:52;;;;;;;22.03;20.57;;;;;;;;;;5091802;28;20557;-76
2023/03/30 11:30:21;;;;;;;21.50;20.17;;;;;;;;;;5092379;28;21010;-76
2023/03/30 11:32:50;;;;;;;21.30;19.90;;;;;;;;;;5093551;28;20452;-77
2023/03/30 11:35:20;;;;;;;22.23;20.70;;;;;;;;;;5092537;28;20457;-77
2023/03/30 11:37:48;;;;;;;21.57;20.17;;;;;;;;;;5092163;28;20445;-76
2023/03/30 11:40:17;;;;;;;20.43;19.47;;;;;;;;;;5091641;28;20447;-76
2023/03/30 11:42:47;;;;;;;20.60;19.50;;;;;;;;;;5093479;28;20415;-76
2023/03/30 11:45:19;;;;;;;20.87;19.50;;;;;;;;;;5097004;28;20515;-76
2023/03/30 11:47:51;;;;;;;20.37;19.17;;;;;;;;;;5091582;28;20816;-76
2023/03/30 11:50:26;;;;;;;20.70;19.30;;;;;;;;;;5091782;28;20468;-78
2023/03/30 11:52:58;;;;;;;20.20;19.10;;;;;;;;;;5093991;28;20897;-78
2023/03/30 11:55:35;;;;;;;67.97;42.93;;;;;;;;;;5093504;28;20463;-77
2023/03/30 11:58:08;;;;;;;84.33;50.67;;;;;;;;;;5091615;28;20850;-77
2023/03/30 12:00:44;;;;;;;31.70;29.07;;;;;;;;;;5091409;28;20567;-77
2023/03/30 12:03:17;;;;;;;21.30;19.97;;;;;;;;;;5092012;28;20444;-76
2023/03/30 12:05:47;;;;;;;41.20;37.60;;;;;;;;;;5091296;28;20518;-76
2023/03/30 12:08:20;;;;;;;21.17;19.97;;;;;;;;;;5092808;28;20472;-78
2023/03/30 12:10:50;;;;;;;21.27;19.87;;;;;;;;;;5092170;28;20437;-76
2023/03/30 12:13:20;;;;;;;19.73;18.63;;;;;;;;;;5091933;28;20460;-76
2023/03/30 12:15:52;;;;;;;20.00;18.70;;;;;;;;;;5093551;28;20430;-84
2023/03/30 12:18:26;;;;;;;19.83;18.40;;;;;;;;;;5097996;28;20507;-78
2023/03/30 12:20:55;;;;;;;20.23;18.83;;;;;;;;;;5093413;28;20429;-85
2023/03/30 12:23:27;;;;;;;19.43;18.43;;;;;;;;;;5092903;28;20479;-78
2023/03/30 12:26:05;;;;;;;20.90;19.20;;;;;;;;;;5092045;28;20465;-78
2023/03/30 12:28:45;;;;;;;20.43;19.23;;;;;;;;;;5092442;28;20538;-78
2023/03/30 12:31:13;;;;;;;21.80;20.13;;;;;;;;;;5088758;28;20814;-77
2023/03/30 12:33:46;;;;;;;21.77;20.17;;;;;;;;;;5071669;28;20531;-77
2023/03/30 12:36:25;;;;;;;22.23;20.33;;;;;;;;;;5074924;28;20426;-78
2023/03/30 12:38:52;;;;;;;21.73;20.23;;;;;;;;;;5080736;28;20456;-78
2023/03/30 12:41:21;;;;;;;20.57;19.37;;;;;;;;;;5077299;28;20962;-81
2023/03/30 12:44:07;;;;;;;22.10;20.60;;;;;;;;;;5075398;28;20461;-80
2023/03/30 12:46:36;;;;;;;22.10;20.27;;;;;;;;;;5076611;28;20442;-80
2023/03/30 12:49:08;;;;;;;20.40;19.10;;;;;;;;;;5076966;28;20462;-80
2023/03/30 12:51:50;;;;;;;21.40;19.90;;;;;;;;;;5074016;28;20431;-79
2023/03/30 12:54:27;;;;;;;22.40;20.70;;;;;;;;;;5071566;28;20500;-79
2023/03/30 12:56:59;;;;;;;22.50;21.00;;;;;;;;;;5071707;28;20412;-79
2023/03/30 12:59:32;;;;;;;22.93;21.30;;;;;;;;;;5074999;28;20464;-79
2023/03/30 13:02:15;;;;;;;22.00;20.13;;;;;;;;;;5076450;28;20412;-79
2023/03/30 13:04:47;;;;;;;23.57;21.73;;;;;;;;;;5075982;28;20481;-78
2023/03/30 13:07:15;;;;;;;22.23;20.67;;;;;;;;;;5080942;28;20429;-79
2023/03/30 13:09:53;;;;;;;23.63;22.00;;;;;;;;;;5084098;28;20510;-79
2023/03/30 13:12:35;;;;;;;20.63;19.23;;;;;;;;;;5085969;28;20492;-79
2023/03/30 13:15:05;;;;;;;21.23;20.13;;;;;;;;;;5085868;28;21325;-80
2023/03/30 13:20:16;;;;;;;20.63;19.10;;;;;;;;;;5041923;28;20570;-77
2023/03/30 13:22:53;;;;;;;21.07;19.60;;;;;;;;;;5043642;28;20411;-78
2023/03/30 13:25:27;;;;;;;20.10;18.80;;;;;;;;;;5045949;28;20456;-79
2023/03/30 13:27:58;;;;;;;19.70;18.60;;;;;;;;;;5047313;28;20454;-77
2023/03/30 13:30:29;;;;;;;22.63;21.03;;;;;;;;;;5047154;28;20525;-88
2023/03/30 13:33:11;;;;;;;20.60;19.27;;;;;;;;;;5043964;28;20456;-85
2023/03/30 13:35:52;;;;;;;20.77;19.30;;;;;;;;;;5041016;28;20840;-87
2023/03/30 13:38:30;;;;;;;22.40;20.20;;;;;;;;;;5038994;28;20472;-86
2023/03/30 13:41:02;;;;;;;21.47;19.80;;;;;;;;;;5045830;28;20464;-81
2023/03/30 13:43:37;;;;;;;20.37;19.07;;;;;;;;;;5046823;28;20428;-82
2023/03/30 13:46:09;;;;;;;22.20;20.10;;;;;;;;;;5045719;28;20475;-82
2023/03/30 13:48:43;;;;;;;21.30;19.60;;;;;;;;;;5044879;28;20518;-82
2023/03/30 13:51:14;;;;;;;22.83;20.97;;;;;;;;;;5044244;28;21047;-83
2023/03/30 13:53:43;;;;;;;22.30;20.60;;;;;;;;;;5045821;28;20473;-83
2023/03/30 13:56:11;;;;;;;21.97;20.30;;;;;;;;;;5043952;28;20444;-83
2023/03/30 13:58:39;;;;;;;23.87;21.70;;;;;;;;;;5044414;28;20472;-83
2023/03/30 14:01:10;;;;;;;22.47;20.80;;;;;;;;;;5039389;28;20474;-86
2023/03/30 14:03:39;;;;;;;23.77;21.80;;;;;;;;;;5036001;28;20453;-77
2023/03/30 14:06:08;;;;;;;21.83;20.33;;;;;;;;;;5041172;28;20574;-77
2023/03/30 14:08:36;;;;;;;23.00;21.20;;;;;;;;;;5039169;28;20479;-78
2023/03/30 14:11:07;;;;;;;23.83;22.13;;;;;;;;;;5041939;28;20538;-86
2023/03/30 14:13:35;;;;;;;22.33;20.83;;;;;;;;;;5041207;28;20482;-84
2023/03/30 14:16:03;;;;;;;22.17;20.20;;;;;;;;;;5047246;28;20470;-85
2023/03/30 14:18:31;;;;;;;20.67;19.40;;;;;;;;;;5040546;28;20486;-88
2023/03/30 14:20:59;;;;;;;21.57;20.07;;;;;;;;;;5039351;28;21093;-80
2023/03/30 14:23:32;;;;;;;22.73;21.37;;;;;;;;;;5035630;28;20470;-81
2023/03/30 14:25:59;;;;;;;23.40;21.33;;;;;;;;;;5037440;28;20475;-82
2023/03/30 14:28:28;;;;;;;23.63;21.77;;;;;;;;;;5037101;28;20466;-85
2023/03/30 14:30:56;;;;;;;31.00;29.20;;;;;;;;;;5038634;28;20463;-86
2023/03/30 14:33:23;;;;;;;33.03;31.13;;;;;;;;;;5041050;28;20525;-88